Time;durP1;ratioP1;P1;durP2;ratioP2;P2;SDS_P1;SDS_P2;PMS_P1;PMS_P2;Temp;Humidity;BMP_temperature;BMP_pressure;BME280_temperature;BME280_humidity;BME280_pressure;Samples;Min_cycle;Max_cycle;Signal;HPM_P1;HPM_P2
2021/08/23 00:08:18;;;;;;;;;;;21.10;72.60;;;;;;20872503;28;19917;-76
2021/08/23 00:18:19;;;;;;;;;;;20.90;72.40;;;;;;20871800;28;20001;-76
2021/08/23 00:28:20;;;;;;;;;;;21.00;72.50;;;;;;20887691;28;19920;-76
2021/08/23 00:38:20;;;;;;;;;;;21.00;72.50;;;;;;20854459;28;19908;-76
2021/08/23 00:48:22;;;;;;;;;;;21.00;72.50;;;;;;20867435;28;19928;-77
2021/08/23 00:58:23;;;;;;;;;;;21.00;72.50;;;;;;20886101;28;19970;-77
2021/08/23 01:08:30;;;;;;;;;;;21.00;72.40;;;;;;20885399;28;19971;-77
2021/08/23 01:18:31;;;;;;;;;;;20.90;72.40;;;;;;20868651;28;19992;-77
2021/08/23 01:28:50;;;;;;;;;;;20.90;72.40;;;;;;20883192;28;20548;-76
2021/08/23 01:38:50;;;;;;;;;;;20.90;72.30;;;;;;20899387;28;19908;-77
2021/08/23 01:48:51;;;;;;;;;;;20.90;72.20;;;;;;20881988;28;19923;-77
2021/08/23 01:58:52;;;;;;;;;;;20.90;72.20;;;;;;20879807;28;20283;-76
2021/08/23 02:08:53;;;;;;;;;;;20.90;72.20;;;;;;20880406;28;19918;-76
2021/08/23 02:18:53;;;;;;;;;;;20.90;72.10;;;;;;20863587;28;19912;-76
2021/08/23 02:28:54;;;;;;;;;;;20.80;72.10;;;;;;20862539;28;19974;-77
2021/08/23 02:38:54;;;;;;;;;;;20.70;72.00;;;;;;20877958;28;19909;-77
2021/08/23 02:48:55;;;;;;;;;;;20.80;72.00;;;;;;20860907;28;19920;-77
2021/08/23 02:58:55;;;;;;;;;;;20.80;72.00;;;;;;20876359;28;19913;-77
2021/08/23 03:08:56;;;;;;;;;;;20.80;71.90;;;;;;20875265;28;19926;-77
2021/08/23 03:18:56;;;;;;;;;;;20.80;72.00;;;;;;20891775;28;19909;-77
2021/08/23 03:28:57;;;;;;;;;;;20.80;72.00;;;;;;20890862;28;19921;-76
2021/08/23 03:38:57;;;;;;;;;;;20.80;72.00;;;;;;20873715;28;20382;-76
2021/08/23 03:48:59;;;;;;;;;;;20.70;71.90;;;;;;20873345;28;19916;-77
2021/08/23 03:58:59;;;;;;;;;;;20.80;72.00;;;;;;20889025;28;20389;-76
2021/08/23 04:09:00;;;;;;;;;;;20.70;72.00;;;;;;20855790;28;19920;-78
2021/08/23 04:19:00;;;;;;;;;;;20.70;72.00;;;;;;20878584;28;19935;-76
2021/08/23 04:29:01;;;;;;;;;;;20.70;72.00;;;;;;20871683;28;19917;-77
2021/08/23 04:39:01;;;;;;;;;;;20.70;72.00;;;;;;20887690;28;19931;-78
2021/08/23 04:49:03;;;;;;;;;;;20.70;72.00;;;;;;20870565;28;20019;-76
2021/08/23 04:59:03;;;;;;;;;;;20.70;72.00;;;;;;20886336;28;20359;-77
2021/08/23 05:09:04;;;;;;;;;;;20.70;72.00;;;;;;20901922;28;19920;-77
2021/08/23 05:19:06;;;;;;;;;;;20.70;72.10;;;;;;20884607;28;20274;-77
2021/08/23 05:29:08;;;;;;;;;;;20.60;72.00;;;;;;20899872;28;20296;-77
2021/08/23 05:39:08;;;;;;;;;;;20.70;72.10;;;;;;20883340;28;19993;-76
2021/08/23 05:49:09;;;;;;;;;;;20.70;72.00;;;;;;20898845;28;19978;-77
2021/08/23 05:59:09;;;;;;;;;;;20.60;72.70;;;;;;20881562;28;19908;-77
2021/08/23 06:09:10;;;;;;;;;;;20.60;72.00;;;;;;20880681;28;20390;-78
2021/08/23 06:19:10;;;;;;;;;;;20.60;72.00;;;;;;20896171;28;19912;-76
2021/08/23 06:29:11;;;;;;;;;;;20.60;72.00;;;;;;20895796;28;20348;-79
2021/08/23 06:39:12;;;;;;;;;;;20.60;72.00;;;;;;20877383;28;19909;-74
2021/08/23 06:49:13;;;;;;;;;;;20.50;72.10;;;;;;20865200;28;19943;-74
2021/08/23 06:59:13;;;;;;;;;;;20.50;72.30;;;;;;20776274;28;19913;-74
2021/08/23 07:09:14;;;;;;;;;;;20.50;72.20;;;;;;20793091;28;19931;-76
2021/08/23 07:19:14;;;;;;;;;;;20.50;72.10;;;;;;20776578;28;20274;-73
2021/08/23 07:29:15;;;;;;;;;;;20.60;72.00;;;;;;20792763;28;19967;-73
2021/08/23 07:39:15;;;;;;;;;;;20.60;72.00;;;;;;20807941;28;20318;-70
2021/08/23 07:49:16;;;;;;;;;;;20.60;71.90;;;;;;20766803;28;19944;-72
2021/08/23 07:59:16;;;;;;;;;;;20.60;71.90;;;;;;20782434;28;19913;-74
2021/08/23 08:09:17;;;;;;;;;;;20.50;71.90;;;;;;20786218;28;19924;-73
2021/08/23 08:19:18;;;;;;;;;;;20.60;71.90;;;;;;20788838;28;20318;-74
2021/08/23 08:29:19;;;;;;;;;;;20.50;71.90;;;;;;20805073;28;19920;-73
2021/08/23 08:39:19;;;;;;;;;;;20.60;72.30;;;;;;20804996;28;19908;-73
2021/08/23 08:49:20;;;;;;;;;;;20.60;72.00;;;;;;20772210;28;20007;-74
2021/08/23 08:59:20;;;;;;;;;;;20.80;72.00;;;;;;20783497;28;19963;-74
2021/08/23 09:09:21;;;;;;;;;;;20.60;71.60;;;;;;20815468;28;20282;-73
2021/08/23 09:19:22;;;;;;;;;;;20.60;71.40;;;;;;20798037;28;20008;-75
2021/08/23 09:29:23;;;;;;;;;;;20.70;71.40;;;;;;20784897;28;20016;-74
2021/08/23 09:39:27;;;;;;;;;;;20.60;71.30;;;;;;20799788;28;20580;-76
2021/08/23 09:49:48;;;;;;;;;;;20.60;70.90;;;;;;20815493;28;19917;-75
2021/08/23 09:59:48;;;;;;;;;;;20.60;70.30;;;;;;21229764;22;19929;-76
2021/08/23 10:09:49;;;;;;;;;;;20.60;69.30;;;;;;20747576;28;19924;-78
2021/08/23 10:19:50;;;;;;;;;;;20.60;68.20;;;;;;20734640;28;20017;-77
2021/08/23 10:29:51;;;;;;;;;;;20.60;67.90;;;;;;20707461;28;19921;-81
2021/08/23 10:40:01;;;;;;;;;;;20.60;67.70;;;;;;20654882;28;20442;-77
2021/08/23 10:50:01;;;;;;;;;;;20.60;66.90;;;;;;20635132;28;19961;-85
2021/08/23 11:00:09;;;;;;;;;;;20.60;66.20;;;;;;20634389;28;19917;-79
2021/08/23 11:10:09;;;;;;;;;;;20.70;65.90;;;;;;20651616;28;20320;-83
2021/08/23 11:20:10;;;;;;;;;;;20.70;65.70;;;;;;20651548;28;19914;-80
2021/08/23 11:30:10;;;;;;;;;;;20.60;65.40;;;;;;20632410;28;19913;-76
2021/08/23 11:40:11;;;;;;;;;;;20.60;65.00;;;;;;20634286;28;19933;-81
2021/08/23 11:50:13;;;;;;;;;;;20.60;63.80;;;;;;20634575;28;19918;-80
2021/08/23 12:00:14;;;;;;;;;;;20.60;62.40;;;;;;20649403;28;19953;-79
2021/08/23 12:10:24;;;;;;;;;;;20.60;61.30;;;;;;20685045;28;19945;-78
2021/08/23 12:20:25;;;;;;;;;;;20.60;61.10;;;;;;20697662;28;19917;-83
2021/08/23 12:30:30;;;;;;;;;;;20.60;61.00;;;;;;20731548;28;19992;-85
2021/08/23 12:40:31;;;;;;;;;;;20.60;61.40;;;;;;20738294;28;19917;-84
2021/08/23 12:50:31;;;;;;;;;;;20.60;61.60;;;;;;20746550;28;19921;-84
2021/08/23 13:00:32;;;;;;;;;;;20.60;61.80;;;;;;20728574;28;19921;-83
2021/08/23 13:10:35;;;;;;;;;;;20.60;61.80;;;;;;20712351;28;19960;-83
2021/08/23 13:20:36;;;;;;;;;;;20.70;62.10;;;;;;20711725;28;19920;-83
2021/08/23 13:30:36;;;;;;;;;;;20.70;62.30;;;;;;20725807;28;19913;-82
2021/08/23 13:40:38;;;;;;;;;;;20.60;62.00;;;;;;20725227;28;19913;-80
2021/08/23 13:50:39;;;;;;;;;;;20.70;61.90;;;;;;20724798;28;19913;-81
2021/08/23 14:00:39;;;;;;;;;;;20.70;61.90;;;;;;20723443;28;19963;-79
2021/08/23 14:10:40;;;;;;;;;;;20.70;61.90;;;;;;20757629;28;19913;-78
2021/08/23 14:20:40;;;;;;;;;;;20.80;61.80;;;;;;20740055;28;19920;-79
2021/08/23 14:30:41;;;;;;;;;;;20.80;61.50;;;;;;20721676;28;19945;-79
2021/08/23 14:40:42;;;;;;;;;;;20.90;60.90;;;;;;20721190;28;19913;-79
2021/08/23 14:50:43;;;;;;;;;;;20.90;60.60;;;;;;20751396;28;20387;-81
2021/08/23 15:00:44;;;;;;;;;;;21.00;60.30;;;;;;20734694;28;19917;-78
2021/08/23 15:10:49;;;;;;;;;;;21.00;60.00;;;;;;20715330;28;20019;-78
2021/08/23 15:20:49;;;;;;;;;;;21.10;60.00;;;;;;20731249;28;19924;-79
2021/08/23 15:30:50;;;;;;;;;;;21.10;59.80;;;;;;20728719;28;19917;-79
2021/08/23 15:40:51;;;;;;;;;;;21.20;59.80;;;;;;20713396;28;19913;-79
2021/08/23 15:50:51;;;;;;;;;;;21.20;59.40;;;;;;20712943;28;19914;-81
2021/08/23 16:00:52;;;;;;;;;;;21.10;58.80;;;;;;20676263;28;1014172;-82
2021/08/23 16:10:53;;;;;;;;;;;21.10;58.80;;;;;;20730415;28;19913;-79
2021/08/23 16:20:53;;;;;;;;;;;21.10;58.70;;;;;;20714124;28;20260;-83
2021/08/23 16:30:54;;;;;;;;;;;21.20;58.40;;;;;;20698262;28;19913;-82
2021/08/23 16:40:54;;;;;;;;;;;21.10;58.30;;;;;;20712933;28;20417;-81
2021/08/23 16:50:55;;;;;;;;;;;21.10;58.30;;;;;;20712875;28;19914;-81
2021/08/23 17:00:55;;;;;;;;;;;21.10;58.30;;;;;;20713537;28;19918;-83
2021/08/23 17:10:56;;;;;;;;;;;21.10;58.00;;;;;;20694808;28;19913;-79
2021/08/23 17:20:59;;;;;;;;;;;21.20;57.70;;;;;;20710977;28;19924;-84
2021/08/23 17:30:59;;;;;;;;;;;21.00;57.60;;;;;;20733262;28;19913;-78
2021/08/23 17:41:00;;;;;;;;;;;21.00;57.30;;;;;;20747856;28;19919;-78
2021/08/23 17:51:01;;;;;;;;;;;20.90;57.20;;;;;;20723772;28;19921;-80
2021/08/23 18:01:06;;;;;;;;;;;20.90;57.00;;;;;;20705687;28;19921;-84
2021/08/23 18:11:07;;;;;;;;;;;20.80;57.20;;;;;;20739374;28;20018;-84
2021/08/23 18:21:08;;;;;;;;;;;20.80;57.60;;;;;;20736670;28;19921;-83
2021/08/23 18:31:09;;;;;;;;;;;20.80;58.20;;;;;;20720881;28;20359;-83
2021/08/23 18:41:11;;;;;;;;;;;20.80;58.50;;;;;;20751483;28;19968;-81
2021/08/23 18:51:12;;;;;;;;;;;20.80;58.90;;;;;;20733693;28;19914;-87
2021/08/23 19:01:12;;;;;;;;;;;20.80;59.20;;;;;;20687135;28;19967;-84
2021/08/23 19:11:15;;;;;;;;;;;20.80;59.60;;;;;;20748323;28;19924;-83
2021/08/23 19:21:16;;;;;;;;;;;20.80;59.90;;;;;;20733205;28;19914;-82
2021/08/23 19:31:16;;;;;;;;;;;20.80;60.20;;;;;;20700201;28;19960;-83
2021/08/23 19:41:18;;;;;;;;;;;20.70;60.40;;;;;;20696289;28;19960;-81
2021/08/23 19:51:19;;;;;;;;;;;20.70;60.60;;;;;;20726547;28;20256;-80
2021/08/23 20:01:19;;;;;;;;;;;20.70;60.90;;;;;;20697324;28;20410;-80
2021/08/23 20:11:21;;;;;;;;;;;20.60;60.80;;;;;;20728800;28;19913;-82
2021/08/23 20:21:22;;;;;;;;;;;20.60;60.90;;;;;;20713317;28;20008;-82
2021/08/23 20:31:22;;;;;;;;;;;20.60;61.00;;;;;;20728952;28;20338;-81
2021/08/23 20:41:23;;;;;;;;;;;20.60;61.10;;;;;;20712779;28;19941;-81
2021/08/23 20:51:24;;;;;;;;;;;20.70;61.20;;;;;;20696448;28;20015;-81
2021/08/23 21:01:24;;;;;;;;;;;20.60;61.20;;;;;;20717937;28;20561;-82
2021/08/23 21:11:25;;;;;;;;;;;20.60;61.20;;;;;;20727811;28;19913;-81
2021/08/23 21:21:25;;;;;;;;;;;20.70;61.30;;;;;;20710626;28;19913;-81
2021/08/23 21:31:26;;;;;;;;;;;20.60;61.20;;;;;;20709606;28;19917;-81
2021/08/23 21:41:26;;;;;;;;;;;20.60;61.20;;;;;;20742172;28;19909;-81
2021/08/23 21:51:29;;;;;;;;;;;20.60;61.30;;;;;;20739885;28;19918;-81
2021/08/23 22:01:31;;;;;;;;;;;20.50;61.20;;;;;;20740346;28;19945;-80
2021/08/23 22:11:31;;;;;;;;;;;20.50;61.20;;;;;;20756060;28;19913;-81
2021/08/23 22:21:32;;;;;;;;;;;20.50;61.30;;;;;;20737999;28;19964;-80
2021/08/23 22:31:33;;;;;;;;;;;20.50;61.40;;;;;;20705702;28;19921;-81
2021/08/23 22:41:33;;;;;;;;;;;20.50;61.30;;;;;;20704916;28;19917;-81
2021/08/23 22:51:34;;;;;;;;;;;20.40;61.40;;;;;;20703973;28;19913;-80
2021/08/23 23:01:36;;;;;;;;;;;20.50;61.50;;;;;;20718259;28;20253;-81
2021/08/23 23:11:36;;;;;;;;;;;20.40;61.50;;;;;;20752254;28;19920;-81
2021/08/23 23:21:37;;;;;;;;;;;20.50;61.60;;;;;;20733911;28;20303;-81
2021/08/23 23:31:37;;;;;;;;;;;20.40;61.60;;;;;;20701307;28;19913;-82
2021/08/23 23:41:38;;;;;;;;;;;20.40;62.30;;;;;;20715803;28;19924;-81
2021/08/23 23:51:39;;;;;;;;;;;20.40;61.70;;;;;;20699478;28;19937;-81
